Terminal Aerodrome Forecast
Issued by NWS Cleveland, OH

Home | Current Version | Previous Version | Graphics & Text | Print | Product List | Glossary On
Versions: 1 2 3 4 5 6 7 8 9 10 11 12 13 14 15 16 17 18 19
000
FTUS41 KCLE 302350
TAFTOL
TAF
KTOL 302350Z 3100/3124 20005KT 4SM -SHRA OVC035
     FM310300 03014G25KT 5SM -SHRA BR OVC015
     FM310800 03014G25KT 3SM -SHRA BR OVC005
     FM311600 04015G25KT 2SM -SHRA BR OVC010
     FM311900 05015G25KT 5SM -SHRA BR OVC015=

USA.gov is the U.S. government's official web portal to all federal, state and local government web resources and services.